Meekatharra, Australia
Current Conditions -  °F | °C
As of 3:00 AM on Friday 19 Dec 2014 (Local Time) from YMEK Reporting Station
Clear Clear  
Wind Chill: 86°   Ceiling: Unl
Heat Index: 86°   Visibility: 6mi
Dew Point: 50°   Wind: 13mph
Humidity: 29%   Direction: 80°E
Pressure: 29.83"   Gusts: NA
Location:  26.59°S, 118.5°E
Report Text: YMEK 181900Z AUTO 08011KT 9999 // NCD 30/10 Q1010
Loading
Personal Weather Stations






























Interactive Weather Map New forecast layout! Learn more

10-Day Weather Forecast

Advertisements
Track Severe Weather on mobile